Time;durP1;ratioP1;P1;durP2;ratioP2;P2;SDS_P1;SDS_P2;PMS_P1;PMS_P2;Temp;Humidity;BMP_temperature;BMP_pressure;BME280_temperature;BME280_humidity;BME280_pressure;Samples;Min_cycle;Max_cycle;Signal;HPM_P1;HPM_P2
2022/03/17 00:00:14;;;;;;;8.43;3.60;;;20.80;50.90;;;;;;4447569;32;20082;-68
2022/03/17 00:02:40;;;;;;;7.85;3.47;;;20.80;51.00;;;;;;4447937;32;20066;-69
2022/03/17 00:05:11;;;;;;;7.82;3.65;;;20.80;51.00;;;;;;4447545;32;20154;-69
2022/03/17 00:07:42;;;;;;;9.15;3.40;;;20.80;51.00;;;;;;4447275;32;20082;-69
2022/03/17 00:10:16;;;;;;;8.38;3.60;;;20.70;51.00;;;;;;4447819;32;20074;-69
2022/03/17 00:12:44;;;;;;;9.70;3.60;;;20.70;51.00;;;;;;4447487;32;20397;-69
2022/03/17 00:15:11;;;;;;;9.27;4.13;;;20.70;51.00;;;;;;4447319;32;20078;-69
2022/03/17 00:17:37;;;;;;;7.35;3.55;;;20.70;51.00;;;;;;4447445;32;20074;-69
2022/03/17 00:20:07;;;;;;;6.82;3.40;;;20.60;51.00;;;;;;4433497;32;20066;-69
2022/03/17 00:22:33;;;;;;;7.80;3.53;;;20.60;51.10;;;;;;4447137;32;20670;-69
2022/03/17 00:24:59;;;;;;;8.40;3.85;;;20.60;51.10;;;;;;4447285;32;20084;-69
2022/03/17 00:27:25;;;;;;;7.65;3.80;;;20.60;51.10;;;;;;4447411;32;20090;-69
2022/03/17 00:29:52;;;;;;;6.50;3.50;;;20.60;51.10;;;;;;4447238;32;20164;-69
2022/03/17 00:32:18;;;;;;;9.43;3.75;;;20.50;51.00;;;;;;4433037;32;20172;-69
2022/03/17 00:37:33;;;;;;;6.88;3.47;;;20.50;51.00;;;;;;4424664;32;20416;-69
2022/03/17 00:39:59;;;;;;;7.97;3.90;;;20.50;51.10;;;;;;4447330;32;20074;-69
2022/03/17 00:42:24;;;;;;;6.72;3.88;;;20.50;51.00;;;;;;4447064;32;20121;-69
2022/03/17 00:44:51;;;;;;;6.78;3.75;;;20.50;51.00;;;;;;4447215;32;20203;-69
2022/03/17 00:47:17;;;;;;;6.88;3.65;;;20.40;51.00;;;;;;4446653;32;20221;-69
2022/03/17 00:49:43;;;;;;;6.88;3.80;;;20.40;51.00;;;;;;4446897;32;20074;-69
2022/03/17 00:52:12;;;;;;;7.13;3.30;;;20.40;51.00;;;;;;4447109;32;20070;-69
2022/03/17 00:54:39;;;;;;;7.35;3.70;;;20.40;51.00;;;;;;4446805;32;20129;-69
2022/03/17 00:57:06;;;;;;;6.22;3.70;;;20.40;51.00;;;;;;4446911;32;20090;-69
2022/03/17 00:59:32;;;;;;;7.70;3.50;;;20.40;51.10;;;;;;4446680;32;20144;-69
2022/03/17 01:01:59;;;;;;;5.68;3.80;;;20.30;51.00;;;;;;4447051;32;20144;-69
2022/03/17 01:04:25;;;;;;;8.57;3.75;;;20.30;51.00;;;;;;4446656;32;20268;-69
2022/03/17 01:06:50;;;;;;;7.45;3.85;;;20.30;51.00;;;;;;4432677;32;20403;-69
2022/03/17 01:09:16;;;;;;;5.90;4.00;;;20.30;51.00;;;;;;4433026;32;20086;-69
2022/03/17 01:11:42;;;;;;;7.13;3.88;;;20.30;51.00;;;;;;4446568;32;20092;-68
2022/03/17 01:14:08;;;;;;;5.57;3.65;;;20.30;51.00;;;;;;4446748;32;20144;-68
2022/03/17 01:16:34;;;;;;;6.20;3.92;;;20.20;51.90;;;;;;4446721;32;20187;-68
2022/03/17 01:19:00;;;;;;;7.90;4.00;;;20.20;51.00;;;;;;4432652;32;20084;-68
2022/03/17 01:21:27;;;;;;;5.85;3.58;;;20.20;51.00;;;;;;4446502;32;20565;-69
2022/03/17 01:23:53;;;;;;;4.85;3.60;;;20.20;51.00;;;;;;4446626;32;20097;-69
2022/03/17 01:26:19;;;;;;;6.07;3.63;;;20.20;51.00;;;;;;4432551;32;20495;-68
2022/03/17 01:28:45;;;;;;;5.32;3.90;;;20.20;51.00;;;;;;4446264;32;20104;-69
2022/03/17 01:31:11;;;;;;;5.10;3.80;;;20.10;51.00;;;;;;4446250;32;20416;-68
2022/03/17 01:33:36;;;;;;;6.65;3.92;;;20.10;51.00;;;;;;4446511;32;20398;-69
2022/03/17 01:36:03;;;;;;;8.95;4.05;;;20.10;51.00;;;;;;4446231;32;20467;-68
2022/03/17 01:38:28;;;;;;;6.68;3.70;;;20.10;51.00;;;;;;4446210;32;20096;-68
2022/03/17 01:40:54;;;;;;;6.07;3.65;;;20.10;51.00;;;;;;4446410;32;20114;-68
2022/03/17 01:43:20;;;;;;;4.93;3.13;;;20.10;51.00;;;;;;4445739;32;20074;-68
2022/03/17 01:45:46;;;;;;;4.95;3.53;;;20.10;51.00;;;;;;4446132;32;20081;-68
2022/03/17 01:48:12;;;;;;;6.50;3.53;;;20.00;51.00;;;;;;4446275;32;20066;-68
2022/03/17 01:50:38;;;;;;;5.93;3.80;;;20.00;51.00;;;;;;4445964;32;20081;-68
2022/03/17 01:53:05;;;;;;;7.22;3.80;;;20.00;51.00;;;;;;4419424;32;20591;-69
2022/03/17 01:55:31;;;;;;;5.05;3.70;;;20.00;51.00;;;;;;4446277;32;20248;-69
2022/03/17 01:57:57;;;;;;;6.50;4.10;;;20.00;51.00;;;;;;4445805;32;20097;-69
2022/03/17 02:00:23;;;;;;;5.03;3.60;;;20.00;51.00;;;;;;4445653;32;20101;-69
2022/03/17 02:02:51;;;;;;;6.28;4.00;;;20.00;51.10;;;;;;4445841;32;20484;-68
2022/03/17 02:05:23;;;;;;;5.10;3.47;;;19.90;51.00;;;;;;4445943;32;20384;-69
2022/03/17 02:07:52;;;;;;;5.90;3.83;;;19.90;51.00;;;;;;4446086;32;20518;-69
2022/03/17 02:10:20;;;;;;;5.32;3.80;;;19.90;51.00;;;;;;4445947;32;20078;-69
2022/03/17 02:15:34;;;;;;;6.57;3.83;;;19.90;51.00;;;;;;4446056;32;20221;-68
2022/03/17 02:18:02;;;;;;;5.55;3.78;;;19.90;51.00;;;;;;4445853;32;20215;-69
2022/03/17 02:20:28;;;;;;;5.43;4.18;;;19.90;51.00;;;;;;4445794;32;20212;-68
2022/03/17 02:25:33;;;;;;;6.28;4.15;;;19.90;51.10;;;;;;4445554;32;20074;-68
2022/03/17 02:25:49;;;;;;;6.28;4.03;;;19.90;51.00;;;;;;4445770;32;20118;-69
2022/03/17 02:28:15;;;;;;;5.13;3.78;;;19.90;51.10;;;;;;4445269;32;20132;-69
2022/03/17 02:30:41;;;;;;;4.78;3.72;;;19.80;51.00;;;;;;4445716;32;20487;-68
2022/03/17 02:33:10;;;;;;;5.32;3.38;;;19.80;51.00;;;;;;4445401;32;20152;-68
2022/03/17 02:35:39;;;;;;;5.18;3.55;;;19.80;51.00;;;;;;4445590;32;20224;-68
2022/03/17 02:38:07;;;;;;;5.50;3.90;;;19.80;51.10;;;;;;4445381;32;20074;-68
2022/03/17 02:40:35;;;;;;;5.53;3.85;;;19.80;51.10;;;;;;4445372;32;20074;-68
2022/03/17 02:43:04;;;;;;;6.45;3.67;;;19.80;51.10;;;;;;4445341;32;20094;-69
2022/03/17 02:45:31;;;;;;;4.18;3.70;;;19.80;51.10;;;;;;4445273;32;20252;-68
2022/03/17 02:47:57;;;;;;;6.70;4.03;;;19.70;51.00;;;;;;4445240;32;20078;-68
2022/03/17 02:50:23;;;;;;;4.65;3.72;;;19.80;51.00;;;;;;4445322;32;20160;-68
2022/03/17 02:52:49;;;;;;;5.85;3.92;;;19.80;51.10;;;;;;4445237;32;20066;-68
2022/03/17 02:55:15;;;;;;;6.25;4.03;;;19.70;51.00;;;;;;4444677;32;20090;-68
2022/03/17 02:57:44;;;;;;;6.35;3.72;;;19.70;51.00;;;;;;4445076;32;20435;-68
2022/03/17 03:00:12;;;;;;;6.90;3.85;;;19.70;51.00;;;;;;4445108;32;20288;-69
2022/03/17 03:02:44;;;;;;;4.95;3.63;;;19.70;51.00;;;;;;4445534;32;20496;-69
2022/03/17 03:05:10;;;;;;;5.35;4.13;;;19.70;51.10;;;;;;4444663;32;20070;-68
2022/03/17 03:07:37;;;;;;;4.35;3.88;;;19.70;51.10;;;;;;4445222;32;20081;-68
2022/03/17 03:10:05;;;;;;;4.53;3.92;;;19.70;51.10;;;;;;4445305;32;20066;-69
2022/03/17 03:12:31;;;;;;;5.32;4.03;;;19.70;51.10;;;;;;4445045;32;20637;-68
2022/03/17 03:14:56;;;;;;;5.43;3.97;;;19.70;51.10;;;;;;4444949;32;20085;-68
2022/03/17 03:17:23;;;;;;;6.63;4.07;;;19.60;51.10;;;;;;4445218;32;20070;-68
2022/03/17 03:19:49;;;;;;;4.75;3.90;;;19.60;51.10;;;;;;4444992;32;20070;-69
2022/03/17 03:22:18;;;;;;;5.03;3.83;;;19.60;51.10;;;;;;4444700;32;20267;-69
2022/03/17 03:24:47;;;;;;;5.25;3.45;;;19.60;51.10;;;;;;4445029;32;20228;-68
2022/03/17 03:27:13;;;;;;;6.70;4.13;;;19.60;51.10;;;;;;4444676;32;20100;-68
2022/03/17 03:29:40;;;;;;;5.35;4.30;;;19.60;51.10;;;;;;4444581;32;20097;-69
2022/03/17 03:32:06;;;;;;;4.93;3.88;;;19.60;51.10;;;;;;4444621;32;20085;-68
2022/03/17 03:34:33;;;;;;;4.82;3.83;;;19.60;51.10;;;;;;4444766;32;20094;-68
2022/03/17 03:39:43;;;;;;;6.18;4.60;;;19.50;51.10;;;;;;4444972;32;20074;-68
2022/03/17 03:42:10;;;;;;;6.32;4.28;;;19.50;52.10;;;;;;4444913;32;20176;-69
2022/03/17 03:44:37;;;;;;;4.70;4.00;;;19.50;51.10;;;;;;4444536;32;20086;-68
2022/03/17 03:47:05;;;;;;;8.60;4.95;;;19.50;51.10;;;;;;4444394;32;20420;-68
2022/03/17 03:49:31;;;;;;;4.70;3.88;;;19.50;51.10;;;;;;4444729;32;20228;-68
2022/03/17 03:51:57;;;;;;;4.72;3.78;;;19.50;51.10;;;;;;4444711;32;20101;-69
2022/03/17 03:54:23;;;;;;;5.22;4.18;;;19.50;51.10;;;;;;4444698;32;20075;-68
2022/03/17 03:56:50;;;;;;;4.95;4.20;;;19.50;51.10;;;;;;4430658;32;20097;-68
2022/03/17 03:59:21;;;;;;;5.68;4.38;;;19.50;51.10;;;;;;4444619;32;20071;-69
2022/03/17 04:01:49;;;;;;;6.18;4.00;;;19.50;51.10;;;;;;4444797;32;20082;-69
2022/03/17 04:04:20;;;;;;;4.28;3.88;;;19.50;51.10;;;;;;4430662;32;20118;-69
2022/03/17 04:06:48;;;;;;;6.15;4.60;;;19.50;51.10;;;;;;4445966;32;20070;-69
2022/03/17 04:09:14;;;;;;;5.43;4.05;;;19.50;51.20;;;;;;4447538;32;20085;-68
2022/03/17 04:11:41;;;;;;;5.55;4.50;;;19.40;51.10;;;;;;4447246;32;20200;-69
2022/03/17 04:14:08;;;;;;;4.93;4.05;;;19.40;51.10;;;;;;4447174;32;20078;-69
2022/03/17 04:16:35;;;;;;;5.18;4.00;;;19.40;51.10;;;;;;4447705;32;20231;-69
2022/03/17 04:19:01;;;;;;;4.90;3.90;;;19.40;51.10;;;;;;4447318;32;20539;-68
2022/03/17 04:21:27;;;;;;;4.97;4.13;;;19.40;51.10;;;;;;4447336;32;20121;-68
2022/03/17 04:23:53;;;;;;;5.05;4.22;;;19.40;51.10;;;;;;4447307;32;20093;-68
2022/03/17 04:26:19;;;;;;;6.03;4.28;;;19.40;51.10;;;;;;4447464;32;20065;-69
2022/03/17 04:28:45;;;;;;;4.95;4.20;;;19.40;51.10;;;;;;4446981;32;20299;-68
2022/03/17 04:31:11;;;;;;;7.15;4.22;;;19.40;51.10;;;;;;4447180;32;20369;-68
2022/03/17 04:33:37;;;;;;;5.47;4.35;;;19.40;51.10;;;;;;4446839;32;20101;-68
2022/03/17 04:36:05;;;;;;;4.95;4.13;;;19.40;51.20;;;;;;4447179;32;20078;-68
2022/03/17 04:38:32;;;;;;;5.25;4.35;;;19.40;51.20;;;;;;4447092;32;20170;-68
2022/03/17 04:40:58;;;;;;;5.10;4.38;;;19.40;51.20;;;;;;4447095;32;20490;-68
2022/03/17 04:43:25;;;;;;;5.60;4.10;;;19.40;51.20;;;;;;4446993;32;20104;-68
2022/03/17 04:45:51;;;;;;;6.03;4.22;;;19.40;51.20;;;;;;4447334;32;20256;-68
2022/03/17 04:48:17;;;;;;;6.07;4.65;;;19.30;51.20;;;;;;4447304;32;20136;-68
2022/03/17 04:50:43;;;;;;;4.80;3.70;;;19.40;51.30;;;;;;4446649;32;20101;-68
2022/03/17 04:53:27;;;;;;;5.47;4.13;;;19.30;51.20;;;;;;4447058;32;20075;-68
2022/03/17 04:56:08;;;;;;;6.47;4.88;;;19.30;51.20;;;;;;4446526;32;20176;-68
2022/03/17 04:58:40;;;;;;;6.65;4.43;;;19.30;51.30;;;;;;4446824;32;20125;-68
2022/03/17 05:01:07;;;;;;;5.20;4.70;;;19.30;51.30;;;;;;4432682;32;20545;-68
2022/03/17 05:03:34;;;;;;;4.70;3.92;;;19.30;51.30;;;;;;4446736;32;20159;-68
2022/03/17 05:06:01;;;;;;;5.40;4.85;;;19.30;51.30;;;;;;4446612;32;20070;-68
2022/03/17 05:08:27;;;;;;;4.75;4.25;;;19.30;51.40;;;;;;4446487;32;20066;-68
2022/03/17 05:10:53;;;;;;;5.30;4.45;;;19.30;51.40;;;;;;4446836;32;20074;-67
2022/03/17 05:13:22;;;;;;;4.95;4.32;;;19.30;52.40;;;;;;4446498;32;20096;-68
2022/03/17 05:15:51;;;;;;;4.65;4.22;;;19.30;51.50;;;;;;4446623;32;20503;-67
2022/03/17 05:18:17;;;;;;;5.32;4.40;;;19.20;51.40;;;;;;4445762;32;20066;-67
2022/03/17 05:20:43;;;;;;;5.78;4.60;;;19.20;51.40;;;;;;4446551;32;20215;-67
2022/03/17 05:23:11;;;;;;;6.43;4.57;;;19.20;51.50;;;;;;4446174;32;20212;-67
2022/03/17 05:25:41;;;;;;;5.07;4.40;;;19.20;51.50;;;;;;4446575;32;20082;-67
2022/03/17 05:28:10;;;;;;;4.32;3.92;;;19.20;51.50;;;;;;4446305;32;20515;-68
2022/03/17 05:30:38;;;;;;;5.68;4.50;;;19.20;51.60;;;;;;4446303;32;20093;-67
2022/03/17 05:33:04;;;;;;;5.38;4.78;;;19.20;51.60;;;;;;4446286;32;20078;-67
2022/03/17 05:35:30;;;;;;;6.18;4.90;;;19.20;51.60;;;;;;4446475;32;20131;-67
2022/03/17 05:37:57;;;;;;;4.93;4.35;;;19.20;51.70;;;;;;4445927;32;20082;-67
2022/03/17 05:40:23;;;;;;;4.03;3.63;;;19.20;51.70;;;;;;4446211;32;20137;-67
2022/03/17 05:42:55;;;;;;;4.85;3.72;;;19.20;51.70;;;;;;4445910;32;20066;-67
2022/03/17 05:45:28;;;;;;;4.80;3.83;;;19.20;51.80;;;;;;4446177;32;20121;-67
2022/03/17 05:47:56;;;;;;;;;;;19.20;51.80;;;;;;4447085;32;20084;-68
2022/03/17 05:50:24;;;;;;;3.75;3.40;;;19.20;51.80;;;;;;4445750;32;20048;-67
2022/03/17 05:52:51;;;;;;;4.78;3.80;;;19.20;51.90;;;;;;4446204;32;20117;-67
2022/03/17 05:55:19;;;;;;;3.75;3.25;;;19.10;51.90;;;;;;4445922;32;20090;-68
2022/03/17 05:57:46;;;;;;;3.70;3.40;;;19.20;51.90;;;;;;4445881;32;20118;-68
2022/03/17 06:00:20;;;;;;;4.15;3.40;;;19.10;51.90;;;;;;4445867;32;20095;-68
2022/03/17 06:02:46;;;;;;;3.60;3.30;;;19.10;52.00;;;;;;4445627;32;20097;-67
2022/03/17 06:05:13;;;;;;;3.65;3.25;;;19.10;52.00;;;;;;4445562;32;20074;-67
2022/03/17 06:07:50;;;;;;;4.75;3.08;;;19.10;52.10;;;;;;4445929;32;20070;-67
2022/03/17 06:10:22;;;;;;;3.90;3.25;;;19.20;52.10;;;;;;4445766;32;20092;-67
2022/03/17 06:12:51;;;;;;;3.15;2.65;;;19.10;52.10;;;;;;4445787;32;20093;-68
2022/03/17 06:15:18;;;;;;;3.15;2.75;;;19.10;52.10;;;;;;4445561;32;20530;-67
2022/03/17 06:17:48;;;;;;;3.53;3.22;;;19.10;52.10;;;;;;4445642;32;20073;-68
2022/03/17 06:20:19;;;;;;;4.55;2.90;;;19.10;52.10;;;;;;4445637;32;20093;-68
2022/03/17 06:22:48;;;;;;;3.60;3.00;;;19.10;52.20;;;;;;4431531;32;20101;-68
2022/03/17 06:25:16;;;;;;;2.95;2.63;;;19.10;52.20;;;;;;4445536;32;20078;-67
2022/03/17 06:27:43;;;;;;;2.97;2.58;;;19.10;52.20;;;;;;4445214;32;20490;-68
2022/03/17 06:30:12;;;;;;;4.05;2.65;;;19.10;52.20;;;;;;4431693;32;20074;-67
2022/03/17 06:32:39;;;;;;;3.53;2.45;;;19.10;52.20;;;;;;4445506;32;20093;-67
2022/03/17 06:35:26;;;;;;;3.97;2.47;;;19.10;52.30;;;;;;4445433;32;20109;-68
2022/03/17 06:37:54;;;;;;;2.83;2.30;;;19.00;52.20;;;;;;4445797;32;20066;-68
2022/03/17 06:40:20;;;;;;;3.10;2.20;;;19.00;52.30;;;;;;4445391;32;20074;-68
2022/03/17 06:42:47;;;;;;;4.20;2.38;;;19.00;52.20;;;;;;4445543;32;20140;-68
2022/03/17 06:45:13;;;;;;;4.30;2.35;;;19.00;52.30;;;;;;4445505;32;20400;-67
2022/03/17 06:47:40;;;;;;;4.90;2.38;;;19.00;52.30;;;;;;4445587;32;20077;-68
2022/03/17 06:50:07;;;;;;;3.05;2.17;;;19.00;52.30;;;;;;4445041;32;20110;-67
2022/03/17 06:52:33;;;;;;;3.92;2.33;;;19.00;52.40;;;;;;4445453;32;20078;-67
2022/03/17 06:54:59;;;;;;;4.15;2.03;;;19.00;52.50;;;;;;4445405;32;20082;-68
2022/03/17 06:57:25;;;;;;;4.68;2.20;;;18.90;52.50;;;;;;4444893;32;20463;-68
2022/03/17 06:59:51;;;;;;;8.50;2.40;;;18.90;52.60;;;;;;4444821;32;20093;-67
2022/03/17 07:02:19;;;;;;;5.40;2.35;;;18.90;52.70;;;;;;4445163;32;20208;-67
2022/03/17 07:04:45;;;;;;;3.10;1.88;;;18.90;52.80;;;;;;4445222;32;20527;-67
2022/03/17 07:07:11;;;;;;;6.07;2.05;;;18.90;52.90;;;;;;4444965;32;20086;-67
2022/03/17 07:09:37;;;;;;;5.88;2.03;;;18.90;53.00;;;;;;4445136;32;20117;-67
2022/03/17 07:12:04;;;;;;;3.90;2.22;;;18.90;53.00;;;;;;4445041;32;20070;-67
2022/03/17 07:14:30;;;;;;;5.90;1.70;;;18.90;53.00;;;;;;4444793;32;20228;-68
2022/03/17 07:16:57;;;;;;;4.53;1.92;;;18.90;53.00;;;;;;4445005;32;20082;-68
2022/03/17 07:19:23;;;;;;;4.07;1.95;;;18.90;53.00;;;;;;4445218;32;20070;-68
2022/03/17 07:21:49;;;;;;;6.10;2.05;;;18.90;53.00;;;;;;4445025;32;20484;-68
2022/03/17 07:24:16;;;;;;;5.55;1.95;;;18.90;53.00;;;;;;4430860;32;20133;-67
2022/03/17 07:26:41;;;;;;;6.50;1.90;;;18.90;53.10;;;;;;4431083;32;20125;-67
2022/03/17 07:29:08;;;;;;;4.68;1.80;;;18.90;53.00;;;;;;4444881;32;20085;-68
2022/03/17 07:31:34;;;;;;;6.75;1.75;;;18.90;53.10;;;;;;4445112;32;20160;-67
2022/03/17 07:34:00;;;;;;;5.15;1.88;;;18.90;53.20;;;;;;4444557;32;20078;-67
2022/03/17 07:36:27;;;;;;;7.97;1.90;;;18.80;53.10;;;;;;4444817;32;20086;-68
2022/03/17 07:38:58;;;;;;;3.33;1.48;;;18.80;53.20;;;;;;4431164;32;20077;-69
2022/03/17 07:41:24;;;;;;;6.30;1.80;;;18.80;53.20;;;;;;4445649;32;20082;-68
2022/03/17 07:43:51;;;;;;;9.43;1.52;;;18.80;53.10;;;;;;4448149;32;20133;-68
2022/03/17 07:46:17;;;;;;;4.93;1.48;;;18.80;53.10;;;;;;4448086;32;20116;-68
2022/03/17 07:48:43;;;;;;;4.72;1.83;;;18.80;53.10;;;;;;4448051;32;20471;-67
2022/03/17 07:51:09;;;;;;;5.07;1.65;;;18.80;53.10;;;;;;4448028;32;20082;-68
2022/03/17 07:53:36;;;;;;;6.85;1.70;;;18.80;53.10;;;;;;4447460;32;20085;-68
2022/03/17 07:56:03;;;;;;;4.43;1.20;;;18.80;53.10;;;;;;4433976;32;20094;-68
2022/03/17 07:58:32;;;;;;;6.50;1.75;;;18.80;53.10;;;;;;4433390;32;20078;-67
2022/03/17 08:01:00;;;;;;;3.83;1.30;;;18.80;53.10;;;;;;4447685;32;20077;-67
2022/03/17 08:03:27;;;;;;;8.13;1.70;;;18.80;53.10;;;;;;4447668;32;20094;-68
2022/03/17 08:05:53;;;;;;;4.85;1.80;;;18.70;53.00;;;;;;4447435;32;20416;-67
2022/03/17 08:08:20;;;;;;;3.20;1.52;;;18.70;53.00;;;;;;4447797;32;20164;-67
2022/03/17 08:10:46;;;;;;;5.97;1.50;;;18.70;53.00;;;;;;4447632;32;20200;-67
2022/03/17 08:13:13;;;;;;;5.07;1.65;;;18.70;52.90;;;;;;4447529;32;20089;-67
2022/03/17 08:15:40;;;;;;;5.50;1.73;;;18.80;52.90;;;;;;4447438;32;20136;-67
2022/03/17 08:18:09;;;;;;;4.82;1.60;;;18.80;52.70;;;;;;4447647;32;20214;-67
2022/03/17 08:20:39;;;;;;;9.27;1.48;;;18.80;52.70;;;;;;4447527;32;20090;-67
2022/03/17 08:23:06;;;;;;;7.18;1.80;;;18.90;52.60;;;;;;4433429;32;20078;-67
2022/03/17 08:25:32;;;;;;;5.75;1.35;;;18.90;52.50;;;;;;4447062;32;20089;-68
2022/03/17 08:27:58;;;;;;;7.03;1.60;;;19.00;52.40;;;;;;4447612;32;20077;-67
2022/03/17 08:30:24;;;;;;;6.18;1.90;;;19.10;52.40;;;;;;4446983;32;20088;-68
2022/03/17 08:32:49;;;;;;;6.13;1.73;;;19.20;52.10;;;;;;4447241;32;20062;-67
2022/03/17 08:35:17;;;;;;;6.88;1.77;;;19.30;52.10;;;;;;4433252;32;20247;-67
2022/03/17 08:37:45;;;;;;;8.18;1.52;;;19.40;51.90;;;;;;4447132;32;20066;-67
2022/03/17 08:40:12;;;;;;;5.55;1.73;;;19.50;51.70;;;;;;4447305;32;20074;-67
2022/03/17 08:42:39;;;;;;;8.50;2.08;;;19.60;51.60;;;;;;4447235;32;20152;-67
2022/03/17 08:49:18;;;;;;;8.25;1.80;;;19.70;51.50;;;;;;4447294;32;20100;-67
2022/03/17 08:50:42;;;;;;;9.32;1.73;;;19.90;51.10;;;;;;4447250;32;20125;-67
2022/03/17 08:53:08;;;;;;;6.68;1.63;;;20.10;51.00;;;;;;4419501;32;20086;-67
2022/03/17 08:55:36;;;;;;;11.18;2.25;;;20.20;50.80;;;;;;4446770;32;20084;-68
2022/03/17 08:58:03;;;;;;;7.82;1.80;;;20.20;50.70;;;;;;4446745;32;20140;-68
2022/03/17 09:00:31;;;;;;;6.63;1.67;;;20.30;50.60;;;;;;4433124;32;20125;-69
2022/03/17 09:02:59;;;;;;;5.18;1.60;;;20.40;50.60;;;;;;4446752;32;20093;-69
2022/03/17 09:05:26;;;;;;;8.48;2.10;;;20.50;50.60;;;;;;4446178;32;20652;-69
2022/03/17 09:07:52;;;;;;;8.20;1.55;;;20.50;50.50;;;;;;4446728;32;20211;-69
2022/03/17 09:10:18;;;;;;;7.95;1.83;;;20.60;50.40;;;;;;4446669;32;20062;-69
2022/03/17 09:12:44;;;;;;;5.80;1.80;;;20.60;50.30;;;;;;4446601;32;20514;-69
2022/03/17 09:15:11;;;;;;;8.57;1.77;;;20.70;50.20;;;;;;4446766;32;20124;-67
2022/03/17 09:17:41;;;;;;;7.18;1.63;;;20.70;49.90;;;;;;4446605;32;20096;-67
2022/03/17 09:20:13;;;;;;;8.75;2.30;;;20.80;49.20;;;;;;4446194;32;20393;-67
2022/03/17 09:22:40;;;;;;;8.65;1.60;;;20.70;48.60;;;;;;4446781;32;20393;-67
2022/03/17 09:25:07;;;;;;;7.95;1.80;;;20.80;48.10;;;;;;4432309;32;20118;-67
2022/03/17 09:27:33;;;;;;;5.90;1.80;;;20.70;47.50;;;;;;4446069;32;20232;-67
2022/03/17 09:29:59;;;;;;;6.22;1.70;;;20.70;47.20;;;;;;4446252;32;20074;-67
2022/03/17 09:32:25;;;;;;;8.82;1.92;;;20.70;46.70;;;;;;4446276;32;20078;-67
2022/03/17 09:34:51;;;;;;;7.35;1.80;;;20.70;46.40;;;;;;4446393;32;20565;-67
2022/03/17 09:37:18;;;;;;;7.55;1.95;;;20.70;46.10;;;;;;4446207;32;20078;-69
2022/03/17 09:39:45;;;;;;;7.68;1.90;;;20.70;45.80;;;;;;4446241;32;20078;-69
2022/03/17 09:42:19;;;;;;;7.68;1.98;;;20.60;45.70;;;;;;4446466;32;20140;-70
2022/03/17 09:44:47;;;;;;;6.70;2.00;;;20.70;45.80;;;;;;4446184;32;20100;-69
2022/03/17 09:47:18;;;;;;;10.70;1.90;;;20.70;45.80;;;;;;4446160;32;20078;-69
2022/03/17 09:49:46;;;;;;;11.95;2.00;;;20.70;45.80;;;;;;4446117;32;20499;-70
2022/03/17 09:52:14;;;;;;;8.93;2.15;;;20.70;45.80;;;;;;4445788;32;20537;-69
2022/03/17 09:54:41;;;;;;;7.13;1.90;;;20.80;45.90;;;;;;4445998;32;20078;-69
2022/03/17 09:57:07;;;;;;;7.57;1.95;;;20.80;45.90;;;;;;4445966;32;20196;-69
2022/03/17 09:59:33;;;;;;;6.28;2.00;;;20.80;46.00;;;;;;4446112;32;20208;-69
2022/03/17 10:02:00;;;;;;;8.75;1.80;;;20.90;46.10;;;;;;4445948;32;20084;-69
2022/03/17 10:04:35;;;;;;;6.22;2.00;;;20.90;46.00;;;;;;4445609;32;20673;-69
2022/03/17 10:07:02;;;;;;;6.80;1.70;;;20.90;47.00;;;;;;4445665;32;20613;-69
2022/03/17 10:09:29;;;;;;;11.85;2.25;;;20.90;46.10;;;;;;4445551;32;20081;-69
2022/03/17 10:12:09;;;;;;;8.77;1.90;;;20.80;46.00;;;;;;4445403;32;20097;-69
2022/03/17 10:14:41;;;;;;;10.60;2.35;;;20.80;46.10;;;;;;4445566;32;20124;-70
2022/03/17 10:17:31;;;;;;;9.20;1.73;;;20.80;46.20;;;;;;4432529;32;20192;-70
2022/03/17 10:20:13;;;;;;;6.93;1.45;;;20.80;46.20;;;;;;4446127;32;20118;-70
2022/03/17 10:22:42;;;;;;;11.77;2.20;;;20.80;46.20;;;;;;4445758;32;20089;-70
2022/03/17 10:25:08;;;;;;;7.72;2.10;;;20.70;46.20;;;;;;4445473;32;20078;-70
2022/03/17 10:27:45;;;;;;;10.10;2.22;;;20.70;46.20;;;;;;4445405;32;20160;-70
2022/03/17 10:30:12;;;;;;;10.65;2.08;;;20.80;46.30;;;;;;4445466;32;20078;-70
2022/03/17 10:32:39;;;;;;;10.98;2.13;;;20.80;46.30;;;;;;4445350;32;20113;-72
2022/03/17 10:35:08;;;;;;;10.27;2.25;;;20.70;46.30;;;;;;4445462;32;20078;-71
2022/03/17 10:37:37;;;;;;;11.77;2.00;;;20.70;46.20;;;;;;4445439;32;20089;-72
2022/03/17 10:40:10;;;;;;;9.40;2.00;;;20.70;46.00;;;;;;4445400;32;20076;-72
2022/03/17 10:42:36;;;;;;;8.35;2.17;;;20.70;45.90;;;;;;4445135;32;20847;-70
2022/03/17 10:45:05;;;;;;;9.45;2.38;;;20.60;45.90;;;;;;4445585;32;20074;-71
2022/03/17 10:47:33;;;;;;;7.05;1.77;;;20.60;45.90;;;;;;4445397;32;20077;-72
2022/03/17 10:50:12;;;;;;;9.13;2.15;;;20.60;45.80;;;;;;4445476;32;20144;-71
2022/03/17 10:52:47;;;;;;;8.30;2.10;;;20.60;45.70;;;;;;4445570;32;20522;-71
2022/03/17 10:55:13;;;;;;;7.72;2.10;;;20.60;45.70;;;;;;4445321;32;20159;-70
2022/03/17 10:57:40;;;;;;;9.38;2.08;;;20.60;45.60;;;;;;4445255;32;20093;-70
2022/03/17 11:00:12;;;;;;;8.45;2.08;;;20.60;45.60;;;;;;4444918;32;20167;-70
2022/03/17 11:02:39;;;;;;;7.07;1.90;;;20.60;45.60;;;;;;4445341;32;20085;-76
2022/03/17 11:05:10;;;;;;;8.93;2.05;;;20.60;45.60;;;;;;4444928;32;20171;-76
2022/03/17 11:07:38;;;;;;;8.57;1.77;;;20.70;45.60;;;;;;4444870;32;20125;-76
2022/03/17 11:10:06;;;;;;;9.82;2.10;;;20.70;45.60;;;;;;4444820;32;20066;-69
2022/03/17 11:12:32;;;;;;;8.90;2.53;;;20.70;45.50;;;;;;4445047;32;20090;-69
2022/03/17 11:14:59;;;;;;;9.13;2.05;;;20.70;45.60;;;;;;4444552;32;20070;-68
2022/03/17 11:17:37;;;;;;;9.18;2.00;;;20.70;45.70;;;;;;4444582;32;20097;-68
2022/03/17 11:20:06;;;;;;;13.77;2.05;;;20.70;45.80;;;;;;4445131;32;20519;-68
2022/03/17 11:22:33;;;;;;;11.35;2.15;;;20.70;45.80;;;;;;4445016;32;20094;-69
2022/03/17 11:25:19;;;;;;;11.50;1.98;;;20.80;45.80;;;;;;4444676;32;20085;-68
2022/03/17 11:27:50;;;;;;;11.20;2.42;;;20.80;45.80;;;;;;4445241;32;20412;-68
2022/03/17 11:30:17;;;;;;;8.20;1.90;;;20.80;45.70;;;;;;4444693;32;20589;-68
2022/03/17 11:32:58;;;;;;;11.85;2.50;;;20.80;45.60;;;;;;4444903;32;20496;-68
2022/03/17 11:35:29;;;;;;;11.70;1.98;;;20.80;45.60;;;;;;4444950;32;20098;-68
2022/03/17 11:38:14;;;;;;;9.23;1.95;;;20.80;45.50;;;;;;4445012;32;20077;-68
2022/03/17 11:41:10;;;;;;;12.10;2.30;;;20.80;45.50;;;;;;4444786;32;20109;-68
2022/03/17 11:43:39;;;;;;;12.60;2.80;;;20.80;45.50;;;;;;4444700;32;20427;-68
2022/03/17 11:46:21;;;;;;;14.18;2.20;;;20.80;45.50;;;;;;4444529;32;20078;-68
2022/03/17 11:48:51;;;;;;;13.00;2.00;;;20.70;45.50;;;;;;4444868;32;20101;-69
2022/03/17 11:51:18;;;;;;;9.63;2.15;;;20.70;45.50;;;;;;4444769;32;20118;-69
2022/03/17 11:54:04;;;;;;;13.80;2.20;;;20.70;45.60;;;;;;4444433;32;20101;-69
2022/03/17 11:56:40;;;;;;;12.27;2.40;;;20.70;45.80;;;;;;4444890;32;20113;-69
2022/03/17 11:59:07;;;;;;;9.88;2.15;;;20.70;45.70;;;;;;4444943;32;20082;-69
2022/03/17 12:01:35;;;;;;;10.73;2.28;;;20.70;45.70;;;;;;4444431;32;20086;-72
2022/03/17 12:04:03;;;;;;;8.85;2.28;;;20.60;45.70;;;;;;4444560;32;20088;-69
2022/03/17 12:06:39;;;;;;;12.35;1.83;;;20.60;45.70;;;;;;4444291;32;20097;-69
2022/03/17 12:09:10;;;;;;;10.90;2.28;;;20.60;45.60;;;;;;4444994;32;20622;-69
2022/03/17 12:11:44;;;;;;;16.67;2.65;;;20.50;45.80;;;;;;4445049;32;20518;-69
2022/03/17 12:16:47;;;;;;;10.38;2.33;;;20.50;45.60;;;;;;4444738;32;20155;-69
2022/03/17 12:19:40;;;;;;;11.38;2.15;;;20.40;45.60;;;;;;4444675;32;20082;-69
2022/03/17 12:22:08;;;;;;;11.27;2.25;;;20.40;45.60;;;;;;4444899;32;20163;-69
2022/03/17 12:24:40;;;;;;;6.93;1.73;;;20.40;45.70;;;;;;4444304;32;20094;-69
2022/03/17 12:27:09;;;;;;;8.13;2.17;;;20.30;45.60;;;;;;4445502;32;20228;-69
2022/03/17 12:29:36;;;;;;;8.13;2.22;;;20.30;45.80;;;;;;4447281;32;20207;-69
2022/03/17 12:32:22;;;;;;;9.75;2.03;;;20.30;45.80;;;;;;4446982;32;20098;-69
2022/03/17 12:34:51;;;;;;;8.85;1.95;;;20.20;45.60;;;;;;4447268;32;20494;-69
2022/03/17 12:37:18;;;;;;;7.10;1.90;;;20.20;45.80;;;;;;4447212;32;20114;-69
2022/03/17 12:39:49;;;;;;;7.15;1.48;;;20.20;45.80;;;;;;4446946;32;20066;-69
2022/03/17 12:42:21;;;;;;;7.53;2.10;;;20.20;45.90;;;;;;4447072;32;20094;-70
2022/03/17 12:44:55;;;;;;;7.60;1.80;;;20.10;45.90;;;;;;4447098;32;20674;-69
2022/03/17 12:47:24;;;;;;;7.40;1.80;;;20.10;45.90;;;;;;4447086;32;20157;-69
2022/03/17 12:49:52;;;;;;;8.43;1.90;;;20.10;46.00;;;;;;4447223;32;20070;-69
2022/03/17 12:52:21;;;;;;;7.95;2.08;;;20.00;46.00;;;;;;4446938;32;20211;-69
2022/03/17 12:54:58;;;;;;;10.32;2.55;;;20.00;45.90;;;;;;4433191;32;20134;-69
2022/03/17 12:57:26;;;;;;;8.85;2.10;;;20.00;46.00;;;;;;4446974;32;20070;-70
2022/03/17 12:59:52;;;;;;;9.57;2.15;;;20.00;46.00;;;;;;4446852;32;20554;-71
2022/03/17 13:02:18;;;;;;;7.22;1.95;;;20.00;46.10;;;;;;4446827;32;20330;-68
2022/03/17 13:04:58;;;;;;;9.52;1.63;;;20.00;46.10;;;;;;4446739;32;20088;-74